Thunder radar more information blitzortung!


avis per Pluja more information rain snow radar


Visita la nostra xarxa de llocs de meteo:

Template documentation
and downloads

And another site



Rain From: 16-11-2018 00:00 Until: 09:59 warning for: Rain Level: Yellow info button

Pagina Historial Weather Underground text

Diari Resum January 12, 2018 Unitats:  Imperial    Mètric   Tant
« Previous Dia
SegĂźent Dia »
Diari Setmana Mensual Anual Personalitzada
  Maxima: Minima: Media:
Temperatura: TemperatureC °F 1.0 °F 5 °F
Punt de rosada: DewpointC °F -3.3 °F -1.6 °F
Humitat: Humidity % 51 % 62 %
Wind Speed: WindSpeedKMH mph 0.0 mph 2.4 mph
RĂ fegues de vent: WindSpeedGustKMH mph - -
Vent:- - SSE
Pression baro: PressurehPa in 1017.8 in -
Precipitacions: 0.0 in    
Historical Graphs
 
 
Dades de taula per January 12, 2018
Temps Temperatura Punt de rosada Pression baro Vent Wind Speed RĂ fegues de vent Humitat Rainfall Rate (Hourly)
TemperatureC °F DewpointC °F PressurehPa in Calm     Humidity % HourlyPrecipMM in
00:00 2.5 °F -3.0 °F 1019.9 in West 3.2 mph 3.2 mph 67 % 0.0 in
00:03 5.5 °F -1.9 °F 1017.8 in WNW 3.7 mph 3.7 mph 59 % 0.0 in
00:04 5.5 °F -1.9 °F 1017.8 in WNW 3.7 mph 3.7 mph 59 % 0.0 in
00:10 2.6 °F -2.9 °F 1019.9 in Calm   3.2 mph 67 % 0.0 in
00:20 2.5 °F -2.8 °F 1019.9 in NNW 1.6 mph 3.2 mph 68 % 0.0 in
00:30 2.6 °F -2.9 °F 1019.9 in NNW 3.2 mph 4.8 mph 67 % 0.0 in
00:40 2.5 °F -2.8 °F 1019.9 in Calm   3.2 mph 68 % 0.0 in
00:50 2.3 °F -3.0 °F 1019.9 in Calm   3.2 mph 68 % 0.0 in
01:00 2.2 °F -3.3 °F 1019.9 in ENE 1.6 mph 3.2 mph 67 % 0.0 in
01:10 2.1 °F -3.2 °F 1019.9 in Calm   3.2 mph 68 % 0.0 in
01:20 2.1 °F -3.2 °F 1019.9 in Calm   3.2 mph 68 % 0.0 in
01:30 2.0 °F -3.3 °F 1019.9 in NW 1.6 mph 3.2 mph 68 % 0.0 in
01:40 2.2 °F -2.9 °F 1019.9 in NNW 1.6 mph 3.2 mph 69 % 0.0 in
01:50 2.1 °F -3.2 °F 1019.9 in Calm   3.2 mph 68 % 0.0 in
02:00 2.2 °F -2.9 °F 1019.9 in North 3.2 mph 4.8 mph 69 % 0.0 in
02:10 2.0 °F -3.3 °F 1019.9 in North 1.6 mph 3.2 mph 68 % 0.0 in
02:20 1.9 °F -3.2 °F 1019.9 in Calm   3.2 mph 69 % 0.0 in
02:30 1.8 °F -3.3 °F 1019.9 in Calm   1.6 mph 69 % 0.0 in
02:40 2.0 °F -3.1 °F 1020.9 in NNE 4.8 mph 4.8 mph 69 % 0.0 in
02:50 2.5 °F -2.6 °F 1019.9 in NNE 3.2 mph 6.4 mph 69 % 0.0 in
03:00 2.9 °F -2.2 °F 1019.9 in NNW 3.2 mph 6.4 mph 69 % 0.0 in
03:20 3.4 °F -1.9 °F 1020.9 in Calm   4.8 mph 68 % 0.0 in
03:30 3.7 °F -1.9 °F 1020.9 in West 1.6 mph 3.2 mph 67 % 0.0 in
03:40 4.2 °F -1.4 °F 1020.9 in Calm   3.2 mph 67 % 0.0 in
03:50 4.4 °F -1.4 °F 1021.9 in NNW 1.6 mph 4.8 mph 66 % 0.0 in
04:00 4.4 °F -1.6 °F 1021.9 in NNE 4.8 mph 6.4 mph 65 % 0.0 in
04:10 4.7 °F -1.3 °F 1021.9 in NE 3.2 mph 6.4 mph 65 % 0.0 in
04:20 4.7 °F -1.6 °F 1021.9 in NNE 4.8 mph 8.0 mph 64 % 0.0 in
04:30 5.1 °F -1.2 °F 1021.9 in NNE 3.2 mph 9.7 mph 64 % 0.0 in
04:40 5.1 °F -1.4 °F 1021.9 in NE 4.8 mph 9.7 mph 63 % 0.0 in
10:48 5.5 °F -1.2 °F 1021.9 in NNW 5.6 mph 5.6 mph 62 % 0.0 in
10:49 5.6 °F -1.1 °F 1021.9 in ENE 5.6 mph 5.6 mph 62 % 0.0 in
10:55 5.6 °F -1.1 °F 1021.9 in NNE 10.0 mph 10.0 mph 62 % 0.0 in
11:07 6.2 °F -0.6 °F 1021.9 in ENE 4.2 mph 4.2 mph 62 % 0.0 in
11:20 6.2 °F -0.8 °F 1021.9 in North 7.4 mph 7.4 mph 61 % 0.0 in
11:26 6.4 °F -0.6 °F 1021.9 in NNE 5.6 mph 5.6 mph 61 % 0.0 in
11:31 6.6 °F -0.6 °F 1021.9 in NNE 5.6 mph 5.6 mph 60 % 0.0 in
11:54 7.1 °F -0.2 °F 1021.9 in ENE 3.9 mph 3.9 mph 60 % 0.0 in
12:02 7.0 °F -0.5 °F 1021.9 in NNE 5.6 mph 5.6 mph 59 % 0.0 in
12:11 7.3 °F -0.2 °F 1021.9 in ENE 5.0 mph 5.0 mph 59 % 0.0 in
12:18 7.1 °F -0.6 °F 1021.9 in ENE 5.6 mph 5.6 mph 58 % 0.0 in
12:24 7.3 °F -0.4 °F 1021.9 in NNE 7.4 mph 7.4 mph 58 % 0.0 in
12:31 7.5 °F -0.2 °F 1021.9 in North 4.7 mph 4.7 mph 58 % 0.0 in
12:40 8.0 °F 0.2 °F 1021.9 in NW 2.6 mph 2.6 mph 58 % 0.0 in
12:46 8.2 °F 0.2 °F 1021.9 in ENE 3.7 mph 3.7 mph 57 % 0.0 in
13:04 8.8 °F 0.7 °F 1021.9 in NNE 5.6 mph 5.6 mph 57 % 0.0 in
13:11 8.8 °F 0.7 °F 1021.9 in West 5.6 mph 5.6 mph 57 % 0.0 in
13:17 9.1 °F 1.0 °F 1021.9 in NE 5.6 mph 5.6 mph 57 % 0.0 in
13:23 9.2 °F 0.9 °F 1021.9 in ENE 7.4 mph 7.4 mph 56 % 0.0 in
13:30 9.0 °F 0.7 °F 1021.9 in NNE 7.4 mph 7.4 mph 56 % 0.0 in
13:45 9.5 °F 1.2 °F 1021.9 in East 3.7 mph 3.7 mph 56 % 0.0 in
14:00 9.6 °F 1.0 °F 1020.9 in ENE 5.6 mph 5.6 mph 55 % 0.0 in
14:21 9.8 °F 0.9 °F 1020.9 in NNE 7.4 mph 7.4 mph 54 % 0.0 in
14:33 9.8 °F 0.9 °F 1020.9 in NNE 7.4 mph 7.4 mph 54 % 0.0 in
14:44 10.1 °F 1.2 °F 1020.9 in NE 5.6 mph 5.6 mph 54 % 0.0 in
14:50 10.1 °F 0.9 °F 1019.9 in NNE 5.6 mph 5.6 mph 53 % 0.0 in
14:57 10.1 °F 0.9 °F 1019.9 in NE 3.9 mph 3.9 mph 53 % 0.0 in
15:36 10.4 °F 0.9 °F 1020.9 in WNW 3.7 mph 3.7 mph 52 % 0.0 in
15:47 10.4 °F 0.9 °F 1020.9 in NE 3.7 mph 3.7 mph 52 % 0.0 in
15:54 10.4 °F 0.7 °F 1019.9 in NNE 1.9 mph   51 % 0.0 in
16:10 10.5 °F 1.1 °F 1019.9 in NE 3.7 mph 3.7 mph 52 % 0.0 in
16:21 10.4 °F 0.9 °F 1020.9 in NW 1.9 mph   52 % 0.0 in
16:27 10.5 °F 1.1 °F 1020.9 in WNW 1.9 mph   52 % 0.0 in
16:36 10.4 °F 0.7 °F 1020.9 in Calm     51 % 0.0 in
16:43 10.5 °F 1.1 °F 1020.9 in WNW 1.9 mph   52 % 0.0 in
17:16 10.0 °F 0.3 °F 1020.9 in Calm     51 % 0.0 in
17:26 9.6 °F 0.2 °F 1020.9 in NNE 1.9 mph   52 % 0.0 in
17:50 8.9 °F -0.4 °F 1021.9 in WNW 1.9 mph   52 % 0.0 in
18:01 8.6 °F -0.7 °F 1021.9 in NW 1.9 mph   52 % 0.0 in
18:12 8.4 °F -0.9 °F 1021.9 in NNE 3.9 mph 3.9 mph 52 % 0.0 in
18:19 8.1 °F -1.2 °F 1021.9 in WNW 3.7 mph 3.7 mph 52 % 0.0 in
18:20 2.9 °F -2.6 °F 1022.9 in Calm     67 % 0.0 in
18:30 3.0 °F -2.3 °F 1022.9 in Calm   1.6 mph 68 % 0.0 in
18:40 2.9 °F -2.4 °F 1021.9 in SW 1.6 mph 1.6 mph 68 % 0.0 in
18:49 7.5 °F -1.5 °F 1021.9 in Calm     53 % 0.0 in
18:50 2.9 °F -2.4 °F 1020.9 in Calm   1.6 mph 68 % 0.0 in
19:00 2.8 °F -2.3 °F 1020.9 in Calm     69 % 0.0 in
19:02 7.3 °F -1.4 °F 1021.9 in NW 3.7 mph   54 % 0.0 in
19:10 2.8 °F -2.3 °F 1021.9 in Calm   1.6 mph 69 % 0.0 in
19:15 2.6 °F -2.5 °F 1021.9 in NW 1.6 mph 3.2 mph 69 % 0.0 in
19:25 2.5 °F -2.6 °F 1021.9 in Calm   1.6 mph 69 % 0.0 in
19:33 6.8 °F -1.6 °F 1021.9 in ENE 2.6 mph 2.6 mph 55 % 0.0 in
19:35 2.2 °F -2.9 °F 1021.9 in Calm   1.6 mph 69 % 0.0 in
19:55 2.1 °F -3.0 °F 1021.9 in NE 1.6 mph 3.2 mph 69 % 0.0 in
20:00 6.5 °F -1.9 °F 1021.9 in Calm     55 % 0.0 in
20:05 2.0 °F -2.9 °F 1021.9 in Calm   3.2 mph 70 % 0.0 in
20:06 6.3 °F -1.8 °F 1021.9 in Calm     56 % 0.0 in
20:14 6.3 °F -1.8 °F 1021.9 in Calm     56 % 0.0 in
20:15 2.0 °F -2.7 °F 1021.9 in Calm   1.6 mph 71 % 0.0 in
20:25 1.9 °F -2.8 °F 1021.9 in Calm   1.6 mph 71 % 0.0 in
20:32 6.2 °F -1.7 °F 1021.9 in Calm     57 % 0.0 in
20:35 1.8 °F -3.1 °F 1020.9 in Calm     70 % 0.0 in
20:39 6.2 °F -1.7 °F 1022.9 in West 3.7 mph 3.7 mph 57 % 0.0 in
20:45 1.8 °F -2.9 °F 1020.9 in Calm   3.2 mph 71 % 0.0 in
20:46 6.0 °F -1.9 °F 1022.9 in SW 4.2 mph 4.2 mph 57 % 0.0 in
20:55 1.7 °F -3.0 °F 1020.9 in Calm     71 % 0.0 in
20:58 5.5 °F -2.1 °F 1022.9 in Calm     58 % 0.0 in
20:59 5.5 °F -2.1 °F 1022.9 in Calm     58 % 0.0 in
21:09 5.3 °F -2.3 °F 1022.9 in WSW 4.2 mph 4.2 mph 58 % 0.0 in
21:15 1.7 °F -3.0 °F 1021.9 in WNW 3.2 mph 3.2 mph 71 % 0.0 in
21:24 5.2 °F -1.9 °F 1022.9 in Calm     60 % 0.0 in
21:25 1.6 °F -3.3 °F 1021.9 in Calm   3.2 mph 70 % 0.0 in
21:35 1.7 °F -3.2 °F 1021.9 in WSW 1.6 mph 4.8 mph 70 % 0.0 in
21:44 5.0 °F -1.9 °F 1022.9 in NE 3.7 mph 3.7 mph 61 % 0.0 in
21:45 1.7 °F -2.8 °F 1021.9 in WSW 1.6 mph 3.2 mph 72 % 0.0 in
21:55 4.7 °F -1.9 °F 1022.9 in Calm     62 % 0.0 in
22:03 4.5 °F -2.2 °F 1022.9 in WSW 3.7 mph 3.7 mph 62 % 0.0 in
22:05 1.6 °F -2.7 °F 1021.9 in Calm     73 % 0.0 in
22:10 4.2 °F -2.7 °F 1022.9 in SW 5.6 mph 5.6 mph 61 % 0.0 in
22:15 1.6 °F -2.7 °F 1021.9 in WSW 1.6 mph 1.6 mph 73 % 0.0 in
22:25 1.5 °F -2.8 °F 1021.9 in Calm   3.2 mph 73 % 0.0 in
22:29 3.9 °F -2.5 °F 1022.9 in SW 1.9 mph   63 % 0.0 in
22:35 3.8 °F -2.4 °F 1022.9 in Calm     64 % 0.0 in
22:40 3.8 °F -2.4 °F 1022.9 in NNW 2.6 mph 2.6 mph 64 % 0.0 in
22:45 1.6 °F -2.6 °F 1021.9 in Calm   3.2 mph 74 % 0.0 in
22:46 3.8 °F -2.6 °F 1022.9 in NW 1.9 mph   63 % 0.0 in
23:05 1.4 °F -2.7 °F 1020.9 in NNW 1.6 mph 3.2 mph 74 % 0.0 in
23:15 1.2 °F -3.1 °F 1020.9 in NNW 1.6 mph 1.6 mph 73 % 0.0 in
23:19 3.5 °F -2.4 °F 1022.9 in Calm     65 % 0.0 in
23:25 1.2 °F -2.9 °F 1020.9 in Calm   1.6 mph 74 % 0.0 in
23:35 1.0 °F -3.1 °F 1020.9 in Calm   1.6 mph 74 % 0.0 in
23:45 1.1 °F -3.0 °F 1020.9 in Calm   1.6 mph 74 % 0.0 in
23:47 3.1 °F -2.7 °F 1022.9 in SW 3.7 mph 3.7 mph 66 % 0.0 in
23:55 1.1 °F -3.0 °F 1020.9 in Calm     74 % 0.0 in
23:59 3.1 °F -2.7 °F 1022.9 in SW 3.9 mph 3.9 mph 66 % 0.0 in
Meteo Sesrovires
Elogis d' Weather Underground - 1.25 mb

Guio original per  Jim McMurry - jmcmurry@mwt.net Adaptat per a la plantilla per  Wim van der Kuil - Leuven-Template.eu

Trobareu la nostra informacio del temps tambe a:

Weather Underground

AWEKAS